Time;durP1;ratioP1;P1;durP2;ratioP2;P2;SDS_P1;SDS_P2;PMS_P1;PMS_P2;Temp;Humidity;BMP_temperature;BMP_pressure;BME280_temperature;BME280_humidity;BME280_pressure;Samples;Min_cycle;Max_cycle;Signal;HPM_P1;HPM_P2
2022/06/10 00:02:30;;;;;;;10.63;2.85;;;;;;;;;;4870305;29;20127;-84
2022/06/10 00:04:56;;;;;;;9.38;2.72;;;;;;;;;;4886931;29;20171;-86
2022/06/10 00:07:34;;;;;;;10.55;2.65;;;;;;;;;;4869086;29;20048;-86
2022/06/10 00:10:06;;;;;;;9.13;3.05;;;;;;;;;;4871006;29;20124;-86
2022/06/10 00:12:32;;;;;;;10.82;2.83;;;;;;;;;;4888412;29;20532;-86
2022/06/10 00:14:58;;;;;;;11.30;2.78;;;;;;;;;;4858114;29;20088;-86
2022/06/10 00:17:27;;;;;;;12.55;3.03;;;;;;;;;;4879164;29;20055;-86
2022/06/10 00:19:54;;;;;;;7.80;3.38;;;;;;;;;;4886169;29;20175;-85
2022/06/10 00:22:20;;;;;;;9.55;2.60;;;;;;;;;;4888128;29;20446;-83
2022/06/10 00:24:51;;;;;;;12.18;2.92;;;;;;;;;;4888914;29;20047;-83
2022/06/10 00:27:23;;;;;;;8.38;2.80;;;;;;;;;;4888653;29;20056;-87
2022/06/10 00:29:49;;;;;;;4.82;2.50;;;;;;;;;;4887554;29;20032;-85
2022/06/10 00:32:15;;;;;;;9.98;2.85;;;;;;;;;;4869702;29;20060;-85
2022/06/10 00:34:50;;;;;;;10.73;2.92;;;;;;;;;;4883301;29;20055;-84
2022/06/10 00:37:17;;;;;;;14.48;3.03;;;;;;;;;;4886509;29;20066;-85
2022/06/10 00:39:58;;;;;;;7.45;2.50;;;;;;;;;;4870595;29;20052;-85
2022/06/10 00:42:25;;;;;;;9.60;2.92;;;;;;;;;;4883503;29;20119;-85
2022/06/10 00:44:52;;;;;;;7.97;2.70;;;;;;;;;;4891832;29;20525;-84
2022/06/10 00:47:31;;;;;;;13.60;3.28;;;;;;;;;;4887697;29;20053;-86
2022/06/10 00:50:18;;;;;;;11.07;3.25;;;;;;;;;;4887783;29;20090;-84
2022/06/10 00:52:56;;;;;;;7.88;2.58;;;;;;;;;;4888114;29;20108;-85
2022/06/10 00:55:28;;;;;;;14.18;3.17;;;;;;;;;;4885929;29;20032;-85
2022/06/10 00:58:02;;;;;;;9.27;3.03;;;;;;;;;;4891793;29;20045;-84
2022/06/10 01:00:31;;;;;;;;;;;;;;;;;;4867888;29;20108;-84
2022/06/10 01:03:06;;;;;;;10.60;2.80;;;;;;;;;;4889024;29;20026;-85
2022/06/10 01:05:38;;;;;;;6.78;2.60;;;;;;;;;;4876338;29;20048;-85
2022/06/10 01:08:19;;;;;;;10.90;2.78;;;;;;;;;;4875692;29;20393;-85
2022/06/10 01:11:04;;;;;;;10.70;2.58;;;;;;;;;;4891959;29;20119;-86
2022/06/10 01:13:39;;;;;;;8.10;2.60;;;;;;;;;;4869685;29;20397;-83
2022/06/10 01:16:20;;;;;;;9.32;2.45;;;;;;;;;;4888205;29;20053;-84
2022/06/10 01:18:53;;;;;;;8.38;2.15;;;;;;;;;;4871588;29;20059;-86
2022/06/10 01:21:43;;;;;;;9.35;2.83;;;;;;;;;;4872268;29;20101;-87
2022/06/10 01:24:28;;;;;;;8.85;3.33;;;;;;;;;;4875519;29;20188;-86
2022/06/10 01:29:55;;;;;;;10.02;2.60;;;;;;;;;;4875725;29;20087;-85
2022/06/10 01:32:32;;;;;;;9.00;2.80;;;;;;;;;;4887204;29;20078;-85
2022/06/10 01:35:23;;;;;;;11.38;2.47;;;;;;;;;;4874272;29;20564;-84
2022/06/10 01:37:58;;;;;;;8.73;2.83;;;;;;;;;;4872227;29;20048;-83
2022/06/10 01:40:31;;;;;;;11.90;3.22;;;;;;;;;;4871376;29;20525;-85
2022/06/10 01:43:10;;;;;;;7.95;2.85;;;;;;;;;;4857133;29;20057;-84
2022/06/10 01:45:39;;;;;;;13.45;2.67;;;;;;;;;;4889655;29;20524;-85
2022/06/10 01:48:16;;;;;;;12.88;3.45;;;;;;;;;;4885875;29;20052;-84
2022/06/10 01:50:53;;;;;;;8.48;2.80;;;;;;;;;;4887673;29;20120;-87
2022/06/10 01:53:33;;;;;;;13.85;2.70;;;;;;;;;;4888265;29;20044;-86
2022/06/10 01:56:00;;;;;;;14.77;2.92;;;;;;;;;;4874863;29;20080;-86
2022/06/10 01:58:29;;;;;;;12.00;2.90;;;;;;;;;;4892695;29;20044;-87
2022/06/10 02:01:08;;;;;;;11.88;2.72;;;;;;;;;;4890695;29;20453;-85
2022/06/10 02:03:40;;;;;;;8.90;2.85;;;;;;;;;;4893290;29;20053;-83
2022/06/10 02:06:29;;;;;;;11.52;2.92;;;;;;;;;;4889519;29;20060;-85
2022/06/10 02:09:01;;;;;;;13.13;2.85;;;;;;;;;;4861998;29;20147;-86
2022/06/10 02:11:39;;;;;;;7.45;3.22;;;;;;;;;;4891140;29;20055;-87
2022/06/10 02:14:47;;;;;;;11.73;3.30;;;;;;;;;;4868910;29;20389;-83
2022/06/10 02:17:20;;;;;;;7.32;3.25;;;;;;;;;;4861882;29;20501;-85
2022/06/10 02:19:49;;;;;;;7.82;2.70;;;;;;;;;;4869048;29;20296;-84
2022/06/10 02:22:24;;;;;;;8.43;3.22;;;;;;;;;;4888560;29;20135;-82
2022/06/10 02:24:59;;;;;;;12.93;3.78;;;;;;;;;;4871457;29;21051;-85
2022/06/10 02:27:30;;;;;;;10.68;2.85;;;;;;;;;;4869350;29;20143;-86
2022/06/10 02:30:15;;;;;;;9.15;3.40;;;;;;;;;;4888868;29;20049;-82
2022/06/10 02:32:42;;;;;;;10.98;3.53;;;;;;;;;;4867474;29;20053;-84
2022/06/10 02:35:35;;;;;;;11.23;3.85;;;;;;;;;;4886521;29;20597;-84
2022/06/10 02:38:20;;;;;;;7.60;3.22;;;;;;;;;;4869005;29;20161;-84
2022/06/10 02:41:18;;;;;;;15.25;3.95;;;;;;;;;;4869130;29;20056;-85
2022/06/10 02:43:55;;;;;;;8.15;3.22;;;;;;;;;;4866180;29;20068;-84
2022/06/10 02:46:31;;;;;;;9.38;3.15;;;;;;;;;;4868516;29;20116;-86
2022/06/10 02:49:04;;;;;;;16.85;3.65;;;;;;;;;;4883717;29;20040;-84
2022/06/10 02:51:33;;;;;;;11.13;3.63;;;;;;;;;;4869268;29;20090;-86
2022/06/10 02:54:03;;;;;;;12.93;3.92;;;;;;;;;;4852053;29;20044;-86
2022/06/10 02:56:39;;;;;;;11.15;3.90;;;;;;;;;;4886072;29;20648;-86
2022/06/10 03:02:07;;;;;;;9.98;3.85;;;;;;;;;;4869287;29;20528;-85
2022/06/10 03:04:58;;;;;;;10.02;3.17;;;;;;;;;;4885351;29;20060;-85
2022/06/10 03:07:43;;;;;;;11.05;3.70;;;;;;;;;;4856145;29;20068;-85
2022/06/10 03:10:21;;;;;;;16.65;3.95;;;;;;;;;;4837702;29;20144;-83
2022/06/10 03:12:47;;;;;;;10.98;3.83;;;;;;;;;;4862782;29;20133;-86
2022/06/10 03:15:51;;;;;;;13.40;3.80;;;;;;;;;;4842408;29;20052;-82
2022/06/10 03:18:41;;;;;;;15.13;4.43;;;;;;;;;;4782525;29;20413;-86
2022/06/10 03:21:07;;;;;;;14.98;3.80;;;;;;;;;;4836193;29;20828;-86
2022/06/10 03:23:33;;;;;;;12.90;4.28;;;;;;;;;;4841739;29;20052;-85
2022/06/10 03:26:03;;;;;;;11.07;3.67;;;;;;;;;;4840819;29;20134;-84
2022/06/10 03:28:32;;;;;;;8.45;3.38;;;;;;;;;;4858164;29;20049;-82
2022/06/10 03:31:10;;;;;;;13.85;4.53;;;;;;;;;;4847559;29;20069;-85
2022/06/10 03:33:53;;;;;;;9.60;4.07;;;;;;;;;;4854507;29;20045;-85
2022/06/10 03:36:23;;;;;;;16.08;3.97;;;;;;;;;;4856138;29;20168;-86
2022/06/10 03:38:51;;;;;;;16.25;3.85;;;;;;;;;;4866061;29;20041;-88
2022/06/10 03:41:28;;;;;;;13.57;4.30;;;;;;;;;;4885452;29;20048;-84
2022/06/10 03:43:55;;;;;;;13.90;3.97;;;;;;;;;;4887696;29;20052;-87
2022/06/10 03:46:25;;;;;;;11.88;4.00;;;;;;;;;;4867387;29;20191;-85
2022/06/10 03:48:52;;;;;;;13.43;4.60;;;;;;;;;;4885926;29;20048;-83
2022/06/10 03:51:28;;;;;;;14.43;4.38;;;;;;;;;;4883932;29;20048;-85
2022/06/10 03:54:10;;;;;;;9.45;4.13;;;;;;;;;;4886237;29;20076;-86
2022/06/10 03:56:42;;;;;;;13.80;4.13;;;;;;;;;;4869525;29;20044;-87
2022/06/10 03:59:14;;;;;;;12.95;4.05;;;;;;;;;;4866099;29;20053;-86
2022/06/10 04:01:46;;;;;;;11.52;4.10;;;;;;;;;;4871008;29;20044;-85
2022/06/10 04:04:19;;;;;;;12.82;4.97;;;;;;;;;;4866941;29;20044;-87
2022/06/10 04:06:51;;;;;;;14.30;4.90;;;;;;;;;;4868516;29;20083;-83
2022/06/10 04:09:23;;;;;;;12.18;4.63;;;;;;;;;;4868830;29;20394;-86
2022/06/10 04:12:11;;;;;;;10.40;4.90;;;;;;;;;;4883122;29;20064;-85
2022/06/10 04:14:37;;;;;;;12.32;5.10;;;;;;;;;;4886938;29;20060;-83
2022/06/10 04:17:10;;;;;;;11.52;4.55;;;;;;;;;;4884719;29;20197;-85
2022/06/10 04:19:39;;;;;;;12.77;4.80;;;;;;;;;;4884682;29;21180;-82
2022/06/10 04:22:12;;;;;;;18.67;5.03;;;;;;;;;;4866574;29;20080;-82
2022/06/10 04:24:50;;;;;;;18.33;4.80;;;;;;;;;;4885319;29;20524;-82
2022/06/10 04:27:22;;;;;;;18.05;5.15;;;;;;;;;;4887415;29;20048;-85
2022/06/10 04:29:54;;;;;;;12.10;4.50;;;;;;;;;;4882883;29;20044;-85
2022/06/10 04:32:26;;;;;;;19.17;5.10;;;;;;;;;;4887542;29;20147;-85
2022/06/10 04:35:05;;;;;;;18.35;4.93;;;;;;;;;;4863647;29;20102;-86
2022/06/10 04:37:31;;;;;;;16.35;4.80;;;;;;;;;;4869570;29;20071;-85
2022/06/10 04:39:57;;;;;;;13.98;5.05;;;;;;;;;;4827730;29;20081;-86
2022/06/10 04:42:26;;;;;;;15.20;4.85;;;;;;;;;;4813237;29;20103;-85
2022/06/10 04:44:58;;;;;;;19.30;5.28;;;;;;;;;;4828220;29;20058;-84
2022/06/10 04:47:33;;;;;;;14.25;4.50;;;;;;;;;;4825232;29;20132;-85
2022/06/10 04:49:59;;;;;;;17.60;4.35;;;;;;;;;;4827477;29;20066;-85
2022/06/10 04:52:27;;;;;;;16.38;4.55;;;;;;;;;;4810621;29;20045;-83
2022/06/10 04:54:54;;;;;;;17.50;5.05;;;;;;;;;;4828626;29;20073;-84
2022/06/10 04:57:20;;;;;;;11.90;4.47;;;;;;;;;;4824892;29;20158;-86
2022/06/10 04:59:46;;;;;;;17.80;4.65;;;;;;;;;;4828490;29;20088;-83
2022/06/10 05:02:12;;;;;;;19.60;5.00;;;;;;;;;;4828767;29;20041;-86
2022/06/10 05:04:50;;;;;;;17.42;4.43;;;;;;;;;;4826835;29;20176;-83
2022/06/10 05:07:16;;;;;;;11.15;5.03;;;;;;;;;;4829597;29;20562;-86
2022/06/10 05:09:48;;;;;;;20.35;4.93;;;;;;;;;;4810162;29;20046;-85
2022/06/10 05:12:14;;;;;;;18.30;4.10;;;;;;;;;;4869913;29;20180;-84
2022/06/10 05:14:40;;;;;;;16.42;4.40;;;;;;;;;;4882097;29;20037;-85
2022/06/10 05:17:06;;;;;;;14.93;4.47;;;;;;;;;;4886340;29;20044;-84
2022/06/10 05:19:32;;;;;;;15.10;4.60;;;;;;;;;;4868011;29;20168;-85
2022/06/10 05:21:59;;;;;;;14.57;4.82;;;;;;;;;;4885784;29;20091;-83
2022/06/10 05:24:28;;;;;;;15.68;3.90;;;;;;;;;;4885695;29;20754;-84
2022/06/10 05:26:54;;;;;;;16.38;4.32;;;;;;;;;;4850453;29;20055;-84
2022/06/10 05:29:20;;;;;;;17.48;4.45;;;;;;;;;;4887042;29;20056;-82
2022/06/10 05:31:46;;;;;;;15.48;4.68;;;;;;;;;;4869632;29;20057;-86
2022/06/10 05:37:03;;;;;;;16.63;4.38;;;;;;;;;;4870187;29;20112;-87
2022/06/10 05:39:29;;;;;;;15.30;3.60;;;;;;;;;;4871080;29;20108;-84
2022/06/10 05:42:08;;;;;;;16.00;3.75;;;;;;;;;;4887506;29;20101;-87
2022/06/10 05:44:35;;;;;;;12.57;3.55;;;;;;;;;;4857972;29;20127;-84
2022/06/10 05:47:01;;;;;;;17.67;3.63;;;;;;;;;;4872671;29;20565;-84
2022/06/10 05:49:28;;;;;;;12.00;3.72;;;;;;;;;;4869323;29;20048;-85
2022/06/10 05:51:55;;;;;;;14.60;3.33;;;;;;;;;;4889376;29;20048;-86
2022/06/10 05:54:35;;;;;;;17.65;3.63;;;;;;;;;;4868567;29;20056;-86
2022/06/10 05:57:02;;;;;;;10.48;3.30;;;;;;;;;;4888855;29;20052;-83
2022/06/10 05:59:33;;;;;;;13.52;3.25;;;;;;;;;;4888230;29;20060;-85
2022/06/10 06:02:00;;;;;;;13.20;3.28;;;;;;;;;;4885527;29;20160;-84
2022/06/10 06:04:26;;;;;;;15.90;4.00;;;;;;;;;;4871066;29;20315;-86
2022/06/10 06:06:53;;;;;;;15.40;4.07;;;;;;;;;;4888689;29;20429;-83
2022/06/10 06:09:37;;;;;;;11.68;3.45;;;;;;;;;;4885105;29;20204;-82
2022/06/10 06:12:04;;;;;;;13.00;3.92;;;;;;;;;;4870601;29;20455;-86
2022/06/10 06:14:31;;;;;;;17.85;3.90;;;;;;;;;;4888823;29;20040;-83
2022/06/10 06:16:59;;;;;;;17.83;4.95;;;;;;;;;;4887461;29;20585;-83
2022/06/10 06:19:26;;;;;;;15.48;3.60;;;;;;;;;;4871328;29;20040;-85
2022/06/10 06:21:52;;;;;;;16.35;3.63;;;;;;;;;;4871143;29;20770;-89
2022/06/10 06:24:28;;;;;;;13.20;3.45;;;;;;;;;;4888065;29;20135;-82
2022/06/10 06:27:01;;;;;;;19.67;3.72;;;;;;;;;;4889204;29;20045;-90
2022/06/10 06:29:27;;;;;;;19.25;3.83;;;;;;;;;;4885946;29;20045;-88
2022/06/10 06:31:53;;;;;;;17.00;5.00;;;;;;;;;;4839406;29;20078;-88
2022/06/10 06:34:23;;;;;;;20.67;4.50;;;;;;;;;;4869888;29;20128;-88
2022/06/10 06:36:52;;;;;;;23.92;4.10;;;;;;;;;;4887083;29;20136;-82
2022/06/10 06:39:19;;;;;;;15.38;3.85;;;;;;;;;;4887612;29;20408;-88
2022/06/10 06:41:46;;;;;;;18.50;4.38;;;;;;;;;;4882952;29;20044;-85
2022/06/10 06:44:24;;;;;;;16.80;3.75;;;;;;;;;;4889420;29;20417;-83
2022/06/10 06:46:57;;;;;;;19.67;4.45;;;;;;;;;;4888266;29;20044;-89
2022/06/10 06:49:25;;;;;;;13.30;3.47;;;;;;;;;;4873485;29;20049;-91
2022/06/10 06:52:06;;;;;;;15.43;4.63;;;;;;;;;;4886308;29;20052;-89
2022/06/10 06:54:48;;;;;;;17.00;3.70;;;;;;;;;;4887559;29;20048;-89
2022/06/10 06:57:14;;;;;;;14.82;3.85;;;;;;;;;;4886455;29;20180;-89
2022/06/10 07:00:04;;;;;;;15.88;3.58;;;;;;;;;;4865533;29;20053;-90
2022/06/10 07:02:30;;;;;;;16.77;3.65;;;;;;;;;;4838962;29;20045;-86
2022/06/10 07:05:12;;;;;;;18.58;3.97;;;;;;;;;;4843318;29;20052;-84
2022/06/10 07:07:39;;;;;;;12.10;3.50;;;;;;;;;;4877798;29;22070;-87
2022/06/10 07:10:09;;;;;;;8.60;3.65;;;;;;;;;;4827762;29;20061;-88
2022/06/10 07:12:41;;;;;;;12.38;3.97;;;;;;;;;;4842996;29;20078;-87
2022/06/10 07:15:15;;;;;;;16.23;4.70;;;;;;;;;;4821158;29;20062;-91
2022/06/10 07:17:50;;;;;;;11.82;4.32;;;;;;;;;;4812968;29;20057;-83
2022/06/10 07:20:28;;;;;;;18.63;4.10;;;;;;;;;;4828293;29;20093;-91
2022/06/10 07:22:54;;;;;;;11.10;3.80;;;;;;;;;;4830219;29;20526;-88
2022/06/10 07:25:27;;;;;;;15.43;4.13;;;;;;;;;;4800380;29;20204;-83
2022/06/10 07:27:56;;;;;;;20.70;5.40;;;;;;;;;;4841927;29;20054;-84
2022/06/10 07:30:36;;;;;;;12.65;4.25;;;;;;;;;;4838001;29;20099;-83
2022/06/10 07:33:08;;;;;;;13.40;4.25;;;;;;;;;;4848343;29;20089;-84
2022/06/10 07:35:40;;;;;;;22.02;5.90;;;;;;;;;;4847121;29;20057;-85
2022/06/10 07:38:08;;;;;;;16.77;5.18;;;;;;;;;;4832983;29;20160;-90
2022/06/10 07:43:41;;;;;;;23.10;6.25;;;;;;;;;;4868008;29;20430;-92
2022/06/10 07:46:08;;;;;;;28.23;6.95;;;;;;;;;;4870929;29;20063;-89
2022/06/10 07:48:34;;;;;;;19.05;6.25;;;;;;;;;;4866360;29;20477;-85
2022/06/10 07:51:00;;;;;;;15.45;6.40;;;;;;;;;;4888060;29;21228;-87
2022/06/10 07:53:29;;;;;;;25.00;6.47;;;;;;;;;;4888618;29;20044;-87
2022/06/10 07:55:55;;;;;;;19.98;6.00;;;;;;;;;;4889909;29;20044;-85
2022/06/10 07:58:24;;;;;;;19.02;5.72;;;;;;;;;;4894473;29;20049;-82
2022/06/10 08:00:53;;;;;;;16.65;5.72;;;;;;;;;;4891048;29;20053;-83
2022/06/10 08:03:19;;;;;;;17.00;5.70;;;;;;;;;;4898915;29;20054;-84
2022/06/10 08:05:45;;;;;;;19.65;5.90;;;;;;;;;;4889327;29;20394;-81
2022/06/10 08:08:15;;;;;;;14.27;5.03;;;;;;;;;;4891471;29;20132;-82
2022/06/10 08:10:42;;;;;;;16.00;6.07;;;;;;;;;;4888588;29;20045;-89
2022/06/10 08:13:08;;;;;;;14.93;5.95;;;;;;;;;;4872874;29;20094;-87
2022/06/10 08:15:34;;;;;;;13.32;5.57;;;;;;;;;;4871496;29;20104;-91
2022/06/10 08:18:31;;;;;;;13.95;5.97;;;;;;;;;;4885642;29;20045;-85
2022/06/10 08:23:42;;;;;;;15.80;5.72;;;;;;;;;;4882495;29;20080;-92
2022/06/10 08:26:09;;;;;;;17.35;5.57;;;;;;;;;;4884355;29;20073;-90
2022/06/10 08:28:36;;;;;;;12.27;5.50;;;;;;;;;;4888009;29;20040;-90
2022/06/10 08:31:03;;;;;;;14.25;6.68;;;;;;;;;;4853900;29;20044;-89
2022/06/10 08:33:31;;;;;;;15.05;6.32;;;;;;;;;;4891554;29;20123;-92
2022/06/10 08:35:57;;;;;;;15.68;6.53;;;;;;;;;;4886509;29;20096;-92
2022/06/10 08:38:27;;;;;;;13.23;6.43;;;;;;;;;;4876395;29;20064;-92
2022/06/10 08:40:56;;;;;;;10.95;5.40;;;;;;;;;;4876417;29;20051;-89
2022/06/10 08:43:22;;;;;;;9.45;5.90;;;;;;;;;;4886249;29;20087;-87
2022/06/10 08:45:53;;;;;;;10.75;5.65;;;;;;;;;;4874362;29;20064;-85
2022/06/10 08:48:30;;;;;;;10.90;5.65;;;;;;;;;;4875856;29;20045;-89
2022/06/10 08:50:59;;;;;;;8.52;5.38;;;;;;;;;;4875719;29;20049;-84
2022/06/10 08:53:34;;;;;;;11.50;6.13;;;;;;;;;;4886471;29;20049;-89
2022/06/10 08:56:06;;;;;;;13.30;6.25;;;;;;;;;;4872881;29;20059;-91
2022/06/10 08:58:46;;;;;;;10.98;5.70;;;;;;;;;;4898828;29;20124;-89
2022/06/10 09:01:19;;;;;;;13.80;6.38;;;;;;;;;;4879438;29;20481;-90
2022/06/10 09:03:57;;;;;;;12.63;6.03;;;;;;;;;;4882119;29;20053;-89
2022/06/10 09:06:43;;;;;;;16.35;6.15;;;;;;;;;;4872720;29;20101;-88
2022/06/10 09:09:11;;;;;;;20.73;6.80;;;;;;;;;;4880746;29;20573;-89
2022/06/10 09:12:00;;;;;;;12.20;6.07;;;;;;;;;;4901339;29;20044;-90
2022/06/10 09:14:27;;;;;;;15.45;5.72;;;;;;;;;;4848820;29;20067;-88
2022/06/10 09:17:09;;;;;;;12.55;5.70;;;;;;;;;;4876490;29;20076;-89
2022/06/10 09:19:47;;;;;;;14.48;5.88;;;;;;;;;;4892967;29;20048;-88
2022/06/10 09:22:24;;;;;;;15.85;6.47;;;;;;;;;;4893146;29;20061;-86
2022/06/10 09:25:01;;;;;;;15.75;7.00;;;;;;;;;;4898009;29;20060;-90
2022/06/10 09:27:29;;;;;;;14.10;6.32;;;;;;;;;;4893422;29;20516;-90
2022/06/10 09:29:57;;;;;;;17.55;6.25;;;;;;;;;;4885997;29;20080;-89
2022/06/10 09:32:26;;;;;;;16.02;7.25;;;;;;;;;;4890319;29;20052;-91
2022/06/10 09:35:18;;;;;;;20.90;7.38;;;;;;;;;;4859272;29;20091;-90
2022/06/10 09:38:24;;;;;;;13.30;6.13;;;;;;;;;;4869467;29;20061;-86
2022/06/10 09:40:57;;;;;;;12.52;5.82;;;;;;;;;;4868885;29;20067;-88
2022/06/10 09:43:42;;;;;;;16.95;6.50;;;;;;;;;;4875655;29;20052;-88
2022/06/10 09:46:24;;;;;;;19.83;7.90;;;;;;;;;;4873838;29;20080;-83
2022/06/10 09:49:02;;;;;;;14.55;6.78;;;;;;;;;;4876955;29;20048;-87
2022/06/10 09:51:38;;;;;;;14.82;6.80;;;;;;;;;;4905559;29;20048;-84
2022/06/10 09:54:07;;;;;;;15.60;6.72;;;;;;;;;;4905568;29;20052;-89
2022/06/10 09:56:56;;;;;;;19.20;7.05;;;;;;;;;;4892052;29;20405;-86
2022/06/10 09:59:22;;;;;;;17.90;8.30;;;;;;;;;;4901431;29;20044;-83
2022/06/10 10:02:01;;;;;;;18.65;8.00;;;;;;;;;;4892573;29;20041;-89
2022/06/10 10:04:45;;;;;;;19.13;8.07;;;;;;;;;;4893863;29;20084;-88
2022/06/10 10:07:19;;;;;;;21.42;7.90;;;;;;;;;;4873061;29;20037;-88
2022/06/10 10:09:54;;;;;;;22.88;8.27;;;;;;;;;;4892327;29;20640;-90
2022/06/10 10:12:33;;;;;;;21.20;8.70;;;;;;;;;;4860081;29;20184;-90
2022/06/10 10:15:21;;;;;;;19.38;8.88;;;;;;;;;;4854953;29;20136;-91
2022/06/10 10:17:50;;;;;;;21.73;8.45;;;;;;;;;;4858605;29;20553;-89
2022/06/10 10:20:45;;;;;;;17.75;8.70;;;;;;;;;;4831675;29;20438;-85
2022/06/10 10:23:22;;;;;;;16.48;7.40;;;;;;;;;;4877252;29;20514;-90
2022/06/10 10:25:54;;;;;;;17.30;7.00;;;;;;;;;;4877963;29;20044;-84
2022/06/10 10:28:31;;;;;;;15.23;6.28;;;;;;;;;;4872596;29;20106;-90
2022/06/10 10:31:04;;;;;;;19.42;6.38;;;;;;;;;;4870577;29;20053;-87
2022/06/10 10:33:31;;;;;;;15.68;6.43;;;;;;;;;;4868630;29;20414;-89
2022/06/10 10:35:58;;;;;;;14.10;6.72;;;;;;;;;;4871933;29;20037;-90
2022/06/10 10:38:36;;;;;;;15.75;7.10;;;;;;;;;;4872758;29;20144;-87
2022/06/10 10:41:27;;;;;;;18.23;6.88;;;;;;;;;;4874034;29;20057;-91
2022/06/10 10:43:55;;;;;;;19.23;7.78;;;;;;;;;;4858339;29;20064;-85
2022/06/10 10:46:30;;;;;;;14.73;7.13;;;;;;;;;;4894063;29;20089;-91
2022/06/10 10:48:59;;;;;;;19.63;7.35;;;;;;;;;;4900912;29;20489;-91
2022/06/10 10:51:31;;;;;;;12.98;6.55;;;;;;;;;;4866647;29;20382;-89
2022/06/10 10:54:03;;;;;;;16.77;7.03;;;;;;;;;;4872035;29;20059;-91
2022/06/10 10:56:40;;;;;;;18.20;8.02;;;;;;;;;;4874949;29;20048;-89
2022/06/10 10:59:21;;;;;;;13.38;6.75;;;;;;;;;;4893851;29;20048;-91
2022/06/10 11:01:47;;;;;;;12.77;6.32;;;;;;;;;;4894105;29;20393;-89
2022/06/10 11:04:19;;;;;;;20.83;7.32;;;;;;;;;;4896697;29;20052;-83
2022/06/10 11:06:46;;;;;;;25.45;7.93;;;;;;;;;;4874628;29;20052;-89
2022/06/10 11:09:20;;;;;;;18.50;7.97;;;;;;;;;;4868195;29;20561;-87
2022/06/10 11:11:53;;;;;;;15.20;6.95;;;;;;;;;;4884069;29;20945;-91
2022/06/10 11:14:36;;;;;;;17.55;7.28;;;;;;;;;;4885670;29;20049;-86
2022/06/10 11:17:39;;;;;;;20.80;6.97;;;;;;;;;;4886961;29;20044;-87
2022/06/10 11:20:15;;;;;;;12.38;6.25;;;;;;;;;;4870185;29;20057;-85
2022/06/10 11:22:43;;;;;;;20.02;7.90;;;;;;;;;;4869492;29;20084;-90
2022/06/10 11:25:27;;;;;;;12.88;5.95;;;;;;;;;;4886467;29;20060;-89
2022/06/10 11:28:01;;;;;;;12.77;6.85;;;;;;;;;;4886377;29;20728;-83
2022/06/10 11:30:41;;;;;;;16.27;7.13;;;;;;;;;;4892140;29;20040;-87
2022/06/10 11:33:16;;;;;;;16.27;6.82;;;;;;;;;;4889632;29;20541;-85
2022/06/10 11:35:59;;;;;;;14.75;7.50;;;;;;;;;;4890445;29;20051;-85
2022/06/10 11:38:27;;;;;;;15.35;6.47;;;;;;;;;;4878501;29;20073;-86
2022/06/10 11:40:55;;;;;;;14.30;6.53;;;;;;;;;;4839289;29;20477;-86
2022/06/10 11:43:39;;;;;;;14.20;6.57;;;;;;;;;;4850406;29;20072;-83
2022/06/10 11:46:24;;;;;;;14.32;7.22;;;;;;;;;;4848236;29;20419;-84
2022/06/10 11:49:13;;;;;;;18.80;6.95;;;;;;;;;;4830998;29;20045;-85
2022/06/10 11:51:52;;;;;;;17.75;6.20;;;;;;;;;;4851400;29;20057;-82
2022/06/10 11:54:26;;;;;;;13.05;6.47;;;;;;;;;;4832640;29;20049;-85
2022/06/10 11:59:45;;;;;;;14.68;5.82;;;;;;;;;;4849874;29;19930;-86
2022/06/10 12:02:20;;;;;;;10.85;5.15;;;;;;;;;;4820158;29;20045;-83
2022/06/10 12:04:58;;;;;;;10.27;4.90;;;;;;;;;;4835643;29;20656;-82
2022/06/10 12:07:25;;;;;;;12.32;5.55;;;;;;;;;;4832672;29;20773;-85
2022/06/10 12:09:54;;;;;;;10.63;5.32;;;;;;;;;;4845221;29;20117;-85
2022/06/10 12:12:23;;;;;;;13.82;5.53;;;;;;;;;;4846229;29;20049;-82
2022/06/10 12:14:55;;;;;;;9.10;4.78;;;;;;;;;;4830585;29;20549;-85
2022/06/10 12:17:28;;;;;;;12.65;5.45;;;;;;;;;;4867343;29;20316;-87
2022/06/10 12:20:04;;;;;;;17.08;5.22;;;;;;;;;;4847155;29;20563;-86
2022/06/10 12:22:32;;;;;;;14.48;5.18;;;;;;;;;;4848332;29;20152;-85
2022/06/10 12:24:59;;;;;;;19.42;5.20;;;;;;;;;;4853791;29;20060;-86
2022/06/10 12:27:36;;;;;;;13.25;4.60;;;;;;;;;;4868591;29;20521;-86
2022/06/10 12:30:10;;;;;;;11.27;4.80;;;;;;;;;;4869442;29;20057;-86
2022/06/10 12:32:43;;;;;;;11.23;4.82;;;;;;;;;;4853483;29;20052;-83
2022/06/10 12:35:17;;;;;;;15.10;4.20;;;;;;;;;;4868912;29;20564;-82
2022/06/10 12:37:55;;;;;;;12.23;4.13;;;;;;;;;;4879818;29;20052;-82
2022/06/10 12:40:37;;;;;;;8.63;3.80;;;;;;;;;;4887103;29;20056;-87
2022/06/10 12:43:04;;;;;;;10.45;4.18;;;;;;;;;;4899710;29;20036;-84
2022/06/10 12:45:30;;;;;;;10.00;5.15;;;;;;;;;;4887948;29;20140;-87
2022/06/10 12:47:59;;;;;;;14.13;4.68;;;;;;;;;;4865939;29;20433;-82
2022/06/10 12:50:30;;;;;;;10.90;4.68;;;;;;;;;;4890987;29;20048;-88
2022/06/10 12:53:06;;;;;;;11.48;4.65;;;;;;;;;;4890471;29;20450;-86
2022/06/10 12:55:44;;;;;;;14.20;5.78;;;;;;;;;;4872287;29;20056;-85
2022/06/10 12:58:32;;;;;;;10.88;4.60;;;;;;;;;;4866386;29;20056;-82
2022/06/10 13:01:10;;;;;;;11.95;4.97;;;;;;;;;;4873126;29;20175;-86
2022/06/10 13:03:37;;;;;;;12.48;5.22;;;;;;;;;;4888917;29;20049;-84
2022/06/10 13:06:05;;;;;;;12.38;5.13;;;;;;;;;;4889599;29;20045;-85
2022/06/10 13:08:34;;;;;;;13.63;4.93;;;;;;;;;;4888689;29;20059;-85
2022/06/10 13:11:01;;;;;;;16.75;5.25;;;;;;;;;;4889688;29;20041;-81
2022/06/10 13:13:28;;;;;;;16.15;4.90;;;;;;;;;;4872453;29;20051;-83
2022/06/10 13:15:56;;;;;;;12.60;5.60;;;;;;;;;;4888857;29;20068;-84
2022/06/10 13:18:30;;;;;;;13.73;5.53;;;;;;;;;;4890286;29;20060;-85
2022/06/10 13:20:56;;;;;;;15.32;4.75;;;;;;;;;;4890350;29;20079;-82
2022/06/10 13:23:24;;;;;;;11.18;4.70;;;;;;;;;;4889910;29;20044;-85
2022/06/10 13:26:12;;;;;;;13.85;5.05;;;;;;;;;;4872664;29;20112;-84
2022/06/10 13:28:39;;;;;;;13.30;4.53;;;;;;;;;;4896197;29;20020;-84
2022/06/10 13:31:17;;;;;;;10.57;3.80;;;;;;;;;;4907909;29;20469;-82
2022/06/10 13:33:49;;;;;;;;;;;;;;;;;;4895890;29;20044;-86
2022/06/10 13:36:15;;;;;;;13.23;4.35;;;;;;;;;;4885539;29;19927;-87
2022/06/10 13:38:44;;;;;;;14.35;4.72;;;;;;;;;;4887212;29;20064;-86
2022/06/10 13:44:21;;;;;;;13.00;4.40;;;;;;;;;;4888509;29;20529;-87
2022/06/10 13:46:47;;;;;;;8.85;3.85;;;;;;;;;;4882843;29;20045;-85
2022/06/10 13:49:45;;;;;;;14.82;4.50;;;;;;;;;;4881504;29;20048;-84
2022/06/10 13:52:32;;;;;;;12.00;4.53;;;;;;;;;;4884496;29;20051;-82
2022/06/10 13:55:00;;;;;;;11.32;4.25;;;;;;;;;;4867581;29;20072;-85
2022/06/10 13:57:30;;;;;;;10.30;3.92;;;;;;;;;;4870561;29;20105;-83
2022/06/10 13:59:58;;;;;;;8.70;3.45;;;;;;;;;;4884424;29;21097;-83
2022/06/10 14:02:27;;;;;;;7.95;3.55;;;;;;;;;;4853873;29;20075;-87
2022/06/10 14:04:54;;;;;;;7.97;3.60;;;;;;;;;;4885998;29;20077;-85
2022/06/10 14:07:28;;;;;;;11.55;3.53;;;;;;;;;;4891056;29;20412;-81
2022/06/10 14:09:54;;;;;;;11.73;3.75;;;;;;;;;;4872160;29;20116;-87
2022/06/10 14:12:25;;;;;;;7.00;3.28;;;;;;;;;;4876399;29;20085;-86
2022/06/10 14:15:26;;;;;;;6.05;3.20;;;;;;;;;;4872116;29;20080;-82
2022/06/10 14:17:53;;;;;;;8.63;3.22;;;;;;;;;;4889624;29;20044;-84
2022/06/10 14:20:20;;;;;;;8.02;2.75;;;;;;;;;;4888983;29;20048;-85
2022/06/10 14:22:47;;;;;;;10.30;3.78;;;;;;;;;;4857486;29;20141;-86
2022/06/10 14:25:13;;;;;;;8.75;2.83;;;;;;;;;;4884165;29;20079;-84
2022/06/10 14:27:41;;;;;;;5.13;2.10;;;;;;;;;;4886050;29;20501;-87
2022/06/10 14:30:20;;;;;;;4.07;1.92;;;;;;;;;;4892285;29;20072;-83
2022/06/10 14:32:50;;;;;;;6.28;2.10;;;;;;;;;;4874664;29;20386;-86
2022/06/10 14:35:36;;;;;;;4.78;1.85;;;;;;;;;;4859580;29;20056;-86
2022/06/10 14:38:23;;;;;;;6.72;1.88;;;;;;;;;;4886590;29;20128;-82
2022/06/10 14:41:01;;;;;;;8.00;2.28;;;;;;;;;;4854073;29;20088;-84
2022/06/10 14:43:32;;;;;;;6.00;1.88;;;;;;;;;;4871820;29;20179;-91
2022/06/10 14:46:22;;;;;;;5.20;2.10;;;;;;;;;;4892246;29;20044;-86
2022/06/10 14:48:57;;;;;;;12.02;2.25;;;;;;;;;;4783220;29;20074;-83
2022/06/10 14:51:41;;;;;;;10.52;2.50;;;;;;;;;;4814707;29;20556;-87
2022/06/10 14:54:19;;;;;;;13.07;2.15;;;;;;;;;;4815109;29;20058;-85
2022/06/10 14:56:50;;;;;;;7.50;2.38;;;;;;;;;;4816140;29;20046;-84
2022/06/10 14:59:33;;;;;;;6.50;2.13;;;;;;;;;;4800427;29;20141;-85
2022/06/10 15:02:14;;;;;;;6.68;2.30;;;;;;;;;;4799114;29;20103;-86
2022/06/10 15:08:11;;;;;;;7.80;2.10;;;;;;;;;;4895981;29;20143;-85
2022/06/10 15:10:44;;;;;;;5.30;1.80;;;;;;;;;;4860456;29;20056;-83
2022/06/10 15:13:23;;;;;;;7.68;1.75;;;;;;;;;;4869212;29;20064;-85
2022/06/10 15:16:07;;;;;;;6.95;1.80;;;;;;;;;;4888825;29;20124;-85
2022/06/10 15:18:34;;;;;;;8.32;1.90;;;;;;;;;;4891338;29;20048;-87
2022/06/10 15:21:04;;;;;;;7.28;1.98;;;;;;;;;;4894024;29;20527;-83
2022/06/10 15:23:30;;;;;;;4.88;1.70;;;;;;;;;;4894300;29;20235;-86
2022/06/10 15:25:56;;;;;;;5.45;1.90;;;;;;;;;;4861346;29;20037;-87
2022/06/10 15:28:23;;;;;;;7.43;2.00;;;;;;;;;;4876917;29;20140;-84
2022/06/10 15:30:51;;;;;;;8.77;2.22;;;;;;;;;;4861422;29;20052;-84
2022/06/10 15:33:18;;;;;;;7.30;2.10;;;;;;;;;;4876392;29;20045;-83
2022/06/10 15:41:17;;;;;;;4.05;1.90;;;;;;;;;;4876258;29;20437;-87